createdAt,value
2022-10-13T13:11:38.930Z,100401.88
2022-10-13T13:14:34.326Z,100396.13
2022-10-13T13:17:59.564Z,100391.59
2022-10-13T13:22:05.859Z,100396.16
2022-10-13T13:24:39.900Z,100392.63
2022-10-13T13:29:42.645Z,100378.63
2022-10-13T13:33:02.751Z,100384.03
2022-10-13T13:35:29.288Z,100384.63
2022-10-13T13:37:55.806Z,100382.19
2022-10-13T13:43:21.631Z,100371.06
2022-10-13T13:45:48.307Z,100372.19
2022-10-13T13:48:15.000Z,100375.03
2022-10-13T13:50:42.992Z,100358.75
2022-10-13T13:53:09.623Z,100372.03
2022-10-13T13:55:36.519Z,100361.81
2022-10-13T13:58:03.514Z,100358.00
2022-10-13T14:00:30.169Z,100352.56
2022-10-13T14:02:57.836Z,100355.44
2022-10-13T14:05:24.733Z,100350.19
2022-10-13T14:07:54.093Z,100351.22
2022-10-13T14:10:20.742Z,100347.25
2022-10-13T14:12:47.510Z,100351.94
2022-10-13T14:15:14.200Z,100344.94
2022-10-13T14:17:40.788Z,100349.50
2022-10-13T14:20:07.928Z,100346.53
2022-10-13T14:22:37.539Z,100345.16
2022-10-13T14:25:06.499Z,100343.69
2022-10-13T14:27:35.129Z,100349.31
2022-10-13T14:30:05.468Z,100344.00
2022-10-13T14:32:32.304Z,100345.06
2022-10-13T14:34:59.423Z,100344.28
2022-10-13T14:37:30.452Z,100343.28
2022-10-13T14:39:59.776Z,100345.94
2022-10-13T14:42:26.656Z,100336.97
2022-10-13T14:44:53.370Z,100341.31
2022-10-13T14:47:20.231Z,100340.50
2022-10-13T14:49:47.091Z,100334.38
2022-10-13T14:52:14.017Z,100330.00
2022-10-13T14:54:44.655Z,100331.16
2022-10-13T14:57:15.792Z,100327.75
2022-10-13T14:59:45.576Z,100321.78
2022-10-13T15:02:13.453Z,100327.44
2022-10-13T15:04:40.528Z,100317.88
2022-10-13T15:07:07.481Z,100317.19
2022-10-13T15:09:45.492Z,100319.16
2022-10-13T15:12:19.591Z,100320.34
2022-10-13T15:14:46.405Z,100317.00
2022-10-13T15:17:13.016Z,100318.03
2022-10-13T15:19:39.581Z,100318.25
2022-10-13T15:22:06.171Z,100320.28
2022-10-13T15:24:32.768Z,100304.50
2022-10-13T15:26:59.533Z,100314.41
2022-10-13T15:29:27.487Z,100314.53
2022-10-13T15:32:07.720Z,100305.94
2022-10-13T15:34:34.406Z,100310.47
2022-10-13T15:37:00.998Z,100307.09
2022-10-13T15:39:27.629Z,100307.31
2022-10-13T15:41:54.208Z,100307.44
2022-10-13T15:44:21.418Z,100299.72
2022-10-13T15:47:06.601Z,100298.94
2022-10-13T15:49:39.031Z,100298.22
2022-10-13T15:52:06.144Z,100301.03
2022-10-13T15:54:32.941Z,100299.31
2022-10-13T15:56:59.810Z,100308.97
2022-10-13T15:59:26.421Z,100301.00
2022-10-13T16:01:53.036Z,100301.97
2022-10-13T16:04:19.893Z,100316.13
2022-10-13T16:06:46.511Z,100299.34
2022-10-13T16:09:13.188Z,100306.47
2022-10-13T16:11:39.878Z,100305.69
2022-10-13T16:14:06.472Z,100308.38
2022-10-13T16:16:33.050Z,100310.25
2022-10-13T16:19:00.309Z,100300.63
2022-10-13T16:21:27.594Z,100316.56
2022-10-13T16:23:54.355Z,100309.53
2022-10-13T16:26:21.403Z,100298.13
2022-10-13T16:28:48.403Z,100312.31
2022-10-13T16:31:18.019Z,100307.94
2022-10-13T16:33:45.856Z,100306.28
2022-10-13T16:36:15.076Z,100300.97
2022-10-13T16:38:45.650Z,100304.56
2022-10-13T16:41:15.273Z,100307.31
2022-10-13T16:43:42.778Z,100309.19
2022-10-13T16:46:13.486Z,100303.03
2022-10-13T16:48:41.261Z,100302.22
2022-10-13T16:51:11.598Z,100303.97
2022-10-13T16:53:38.866Z,100307.53
2022-10-13T16:56:06.902Z,100304.91
2022-10-13T16:58:33.817Z,100305.91
2022-10-13T17:01:09.743Z,100300.66
2022-10-13T17:03:40.091Z,100302.47
2022-10-13T17:06:07.173Z,100306.03
2022-10-13T17:08:33.970Z,100299.91
2022-10-13T17:11:01.566Z,100307.91
2022-10-13T17:13:28.604Z,100294.75
2022-10-13T17:15:56.704Z,100295.66
2022-10-13T17:18:24.892Z,100292.19
2022-10-13T17:21:00.393Z,100294.00
2022-10-13T17:23:28.408Z,100293.16
2022-10-13T17:25:56.188Z,100290.53
2022-10-13T17:28:23.337Z,100286.16
2022-10-13T17:31:01.302Z,100289.72
2022-10-13T17:33:29.213Z,100290.66
2022-10-13T17:36:09.201Z,100294.19
2022-10-13T17:38:35.781Z,100288.91
2022-10-13T17:41:04.689Z,100296.84
2022-10-13T17:43:32.468Z,100284.53
2022-10-13T17:46:37.332Z,100290.72
2022-10-13T17:49:06.084Z,100294.25
2022-10-13T17:51:32.787Z,100289.84
2022-10-13T17:54:00.324Z,100283.69
2022-10-13T17:56:27.239Z,100290.75
2022-10-13T17:58:53.922Z,100288.13
2022-10-13T18:01:27.720Z,100279.38
2022-10-13T18:03:57.290Z,100288.13
2022-10-13T18:06:26.666Z,100282.84
2022-10-13T18:08:53.261Z,100282.84
2022-10-13T18:11:22.976Z,100281.97
2022-10-13T18:13:49.831Z,100282.84
2022-10-13T18:16:22.443Z,100291.63
2022-10-13T18:18:51.357Z,100290.75
2022-10-13T18:21:22.526Z,100287.25
2022-10-13T18:23:49.496Z,100289.00
2022-10-13T18:26:19.711Z,100291.63
2022-10-13T18:28:48.954Z,100289.00
2022-10-13T18:31:24.364Z,100287.25
2022-10-13T18:33:52.624Z,100284.59
2022-10-13T18:36:23.773Z,100281.06
2022-10-13T18:38:51.809Z,100288.09
2022-10-13T18:41:20.338Z,100282.81
2022-10-13T18:43:46.986Z,100284.53
2022-10-13T18:46:13.686Z,100284.56
2022-10-13T18:48:41.058Z,100284.53
2022-10-13T18:51:14.061Z,100273.97
2022-10-13T18:53:42.838Z,100273.06
2022-10-13T18:56:13.496Z,100267.75
2022-10-13T18:58:40.502Z,100270.34
2022-10-13T19:01:13.390Z,100274.72
2022-10-13T19:03:43.034Z,100273.00
2022-10-13T19:06:12.168Z,100275.59
2022-10-13T19:08:38.902Z,100267.69
2022-10-13T19:11:19.733Z,100272.06
2022-10-13T19:13:47.881Z,100271.13
2022-10-13T19:16:16.764Z,100272.88
2022-10-13T19:18:44.410Z,100275.47
2022-10-13T19:21:14.526Z,100275.44
2022-10-13T19:23:41.562Z,100277.09
2022-10-13T19:26:15.217Z,100277.09
2022-10-13T19:28:43.667Z,100282.28
2022-10-13T19:31:22.372Z,100280.44
2022-10-13T19:33:53.050Z,100275.16
2022-10-13T19:36:26.308Z,100278.66
2022-10-13T19:38:53.498Z,100268.13
2022-10-13T19:41:20.429Z,100268.28
2022-10-13T19:43:47.158Z,100273.41
2022-10-13T19:46:14.109Z,100281.28
2022-10-13T19:48:40.917Z,100277.75
2022-10-13T19:51:09.271Z,100277.78
2022-10-13T19:53:36.594Z,100276.91
2022-10-13T19:56:03.496Z,100278.66
2022-10-13T19:58:30.209Z,100277.81
2022-10-13T20:01:02.920Z,100276.06
2022-10-13T20:03:29.690Z,100276.97
2022-10-13T20:05:56.265Z,100272.69
2022-10-13T20:08:22.881Z,100272.69
2022-10-13T20:10:49.571Z,100270.91
2022-10-13T20:13:16.154Z,100273.53
2022-10-13T20:15:46.142Z,100279.66
2022-10-13T20:18:13.226Z,100282.28
2022-10-13T20:20:41.542Z,100275.28
2022-10-13T20:23:08.609Z,100280.53
2022-10-13T20:25:38.871Z,100277.00
2022-10-13T20:28:06.331Z,100270.00
2022-10-13T20:30:33.636Z,100273.53
2022-10-13T20:33:00.584Z,100269.16
2022-10-13T20:35:27.674Z,100261.28
2022-10-13T20:37:54.349Z,100261.28
2022-10-13T20:40:21.174Z,100262.19
2022-10-13T20:42:52.399Z,100261.31
2022-10-13T20:45:19.479Z,100259.56
2022-10-13T20:47:47.022Z,100263.06
2022-10-13T20:50:14.233Z,100256.91
2022-10-13T20:52:40.865Z,100255.22
2022-10-13T20:55:07.797Z,100256.94
2022-10-13T20:57:34.450Z,100254.28
2022-10-13T21:00:01.101Z,100258.66
2022-10-13T21:02:28.057Z,100262.13
2022-10-13T21:04:54.822Z,100260.38
2022-10-13T21:07:21.684Z,100260.38
2022-10-13T21:09:53.648Z,100260.31
2022-10-13T21:12:20.968Z,100255.88
2022-10-13T21:14:47.574Z,100254.16
2022-10-13T21:17:14.158Z,100251.47
2022-10-13T21:19:40.888Z,100258.44
2022-10-13T21:22:07.465Z,100261.09
2022-10-13T21:24:34.106Z,100254.03
2022-10-13T21:27:00.819Z,100255.75
2022-10-13T21:29:27.405Z,100246.88
2022-10-13T21:31:53.989Z,100253.81
2022-10-13T21:34:20.602Z,100244.19
2022-10-13T21:36:47.258Z,100242.41
2022-10-13T21:39:14.303Z,100236.25
2022-10-13T21:41:41.019Z,100239.72
2022-10-13T21:44:09.914Z,100236.22
2022-10-13T21:46:36.546Z,100236.16
2022-10-13T21:49:05.300Z,100230.03
2022-10-13T21:51:34.193Z,100234.38
2022-10-13T21:54:04.825Z,100243.03
2022-10-13T21:56:32.783Z,100238.56
2022-10-13T21:58:59.560Z,100242.06
2022-10-13T22:01:26.425Z,100235.09
2022-10-13T22:03:58.418Z,100243.00
2022-10-13T22:06:26.001Z,100238.63
2022-10-13T22:08:55.610Z,100243.84
2022-10-13T22:11:24.699Z,100247.31
2022-10-13T22:13:52.899Z,100246.34
2022-10-13T22:16:22.404Z,100245.44
2022-10-13T22:18:51.487Z,100238.38
2022-10-13T22:21:23.928Z,100234.03
2022-10-13T22:23:50.911Z,100237.53
2022-10-13T22:26:18.541Z,100234.00
2022-10-13T22:28:45.235Z,100239.22
2022-10-13T22:31:13.464Z,100237.41
2022-10-13T22:33:43.776Z,100227.75
2022-10-13T22:36:12.275Z,100233.81
2022-10-13T22:38:38.877Z,100236.31
2022-10-13T22:41:06.739Z,100231.03
2022-10-13T22:43:34.106Z,100231.91
2022-10-13T22:46:02.133Z,100230.09
2022-10-13T22:48:28.912Z,100230.13
2022-10-13T22:50:55.523Z,100226.59
2022-10-13T22:53:22.347Z,100229.25
2022-10-13T22:55:48.923Z,100224.88
2022-10-13T22:58:15.523Z,100223.06
2022-10-13T23:00:42.106Z,100223.00
2022-10-13T23:03:13.932Z,100219.50
2022-10-13T23:05:42.578Z,100221.25
2022-10-13T23:08:12.399Z,100229.13
2022-10-13T23:10:39.032Z,100231.66
2022-10-13T23:13:05.986Z,100229.03
2022-10-13T23:15:32.838Z,100227.25
2022-10-13T23:17:59.471Z,100224.63
2022-10-13T23:20:26.081Z,100226.38
2022-10-13T23:22:52.653Z,100227.34
2022-10-13T23:25:21.787Z,100217.78
2022-10-13T23:27:48.407Z,100225.75
2022-10-13T23:30:15.133Z,100218.69
2022-10-13T23:32:41.700Z,100218.69
2022-10-13T23:35:08.661Z,100216.09
2022-10-13T23:37:35.207Z,100214.34
2022-10-13T23:40:01.849Z,100211.63
2022-10-13T23:42:28.758Z,100212.44
2022-10-13T23:44:55.344Z,100209.78
2022-10-13T23:47:22.158Z,100208.00
2022-10-13T23:49:48.971Z,100216.78
2022-10-13T23:52:15.591Z,100206.34
2022-10-13T23:54:42.167Z,100207.22
2022-10-13T23:57:09.007Z,100205.38
2022-10-13T23:59:35.563Z,100200.16
